Time;durP1;ratioP1;P1;durP2;ratioP2;P2;SDS_P1;SDS_P2;PMS_P1;PMS_P2;Temp;Humidity;BMP_temperature;BMP_pressure;BME280_temperature;BME280_humidity;BME280_pressure;Samples;Min_cycle;Max_cycle;Signal;HPM_P1;HPM_P2
2021/03/04 00:00:26;;;;;;;;;;;5.20;99.90;;;;;;5023914;28;19921;-92
2021/03/04 00:02:53;;;;;;;;;;;5.20;99.90;;;;;;5022715;28;19916;-92
2021/03/04 00:05:19;;;;;;;;;;;5.20;99.90;;;;;;5040426;28;19985;-92
2021/03/04 00:07:45;;;;;;;;;;;5.20;99.90;;;;;;5022692;28;19923;-92
2021/03/04 00:10:22;;;;;;;;;;;5.20;99.90;;;;;;5023090;28;19909;-92
2021/03/04 00:12:51;;;;;;;;;;;5.20;99.90;;;;;;5023298;28;19913;-92
2021/03/04 00:15:24;;;;;;;;;;;5.20;99.90;;;;;;5022917;28;20350;-92
2021/03/04 00:17:56;;;;;;;;;;;5.20;99.90;;;;;;5023422;28;19960;-92
2021/03/04 00:20:31;;;;;;;;;;;5.10;99.90;;;;;;5018868;28;19920;-92
2021/03/04 00:22:59;;;;;;;;;;;5.10;99.90;;;;;;5023537;28;19909;-92
2021/03/04 00:25:28;;;;;;;;;;;5.10;99.90;;;;;;5022416;28;19916;-92
2021/03/04 00:27:59;;;;;;;;;;;5.10;99.90;;;;;;5022075;28;19913;-90
2021/03/04 00:30:28;;;;;;;;;;;5.10;99.90;;;;;;5013461;28;19913;-92
2021/03/04 00:33:04;;;;;;;;;;;5.10;99.90;;;;;;5039581;28;19909;-92
2021/03/04 00:35:39;;;;;;;;;;;5.10;99.90;;;;;;5017960;28;19909;-91
2021/03/04 00:38:06;;;;;;;;;;;5.10;99.90;;;;;;5021674;28;19944;-93
2021/03/04 00:40:44;;;;;;;;;;;5.10;99.90;;;;;;5017602;28;19960;-92
2021/03/04 00:43:13;;;;;;;;;;;5.10;99.90;;;;;;5037873;28;20370;-92
2021/03/04 00:45:46;;;;;;;;;;;5.20;99.90;;;;;;5021822;28;19917;-92
2021/03/04 00:48:13;;;;;;;;;;;5.20;99.90;;;;;;5022735;28;19921;-93
2021/03/04 00:50:44;;;;;;;;;;;5.20;99.90;;;;;;5021759;28;19916;-93
2021/03/04 00:53:16;;;;;;;;;;;5.20;99.90;;;;;;5021069;28;19916;-91
2021/03/04 00:55:44;;;;;;;;;;;5.20;99.90;;;;;;5036190;28;19956;-92
2021/03/04 00:58:17;;;;;;;;;;;5.20;99.90;;;;;;5017391;28;20401;-91
2021/03/04 01:00:50;;;;;;;;;;;5.20;99.90;;;;;;5018538;28;19959;-92
2021/03/04 01:03:23;;;;;;;;;;;5.20;99.90;;;;;;5019491;28;19920;-91
2021/03/04 01:05:54;;;;;;;;;;;5.10;99.90;;;;;;5040413;28;19916;-92
2021/03/04 01:08:24;;;;;;;;;;;5.10;99.90;;;;;;5022709;28;20015;-92
2021/03/04 01:10:57;;;;;;;;;;;5.10;99.90;;;;;;5019457;28;19913;-92
2021/03/04 01:13:29;;;;;;;;;;;5.10;99.90;;;;;;5021629;28;20363;-92
2021/03/04 01:16:00;;;;;;;;;;;5.10;99.90;;;;;;5021161;28;19952;-92
2021/03/04 01:18:31;;;;;;;;;;;5.10;99.90;;;;;;5021441;28;19933;-92
2021/03/04 01:21:00;;;;;;;;;;;5.10;99.90;;;;;;5022734;28;19910;-91
2021/03/04 01:23:44;;;;;;;;;;;5.10;99.90;;;;;;5021491;28;19913;-91
2021/03/04 01:26:18;;;;;;;;;;;5.10;99.90;;;;;;5024155;28;19909;-91
2021/03/04 01:28:52;;;;;;;;;;;5.10;99.90;;;;;;5020816;28;19933;-91
2021/03/04 01:31:18;;;;;;;;;;;5.10;99.90;;;;;;5021461;28;19909;-92
2021/03/04 01:33:52;;;;;;;;;;;5.10;99.90;;;;;;5021525;28;19920;-91
2021/03/04 01:36:28;;;;;;;;;;;5.10;99.90;;;;;;5020683;28;19910;-92
2021/03/04 01:38:57;;;;;;;;;;;5.10;99.90;;;;;;5018550;28;19910;-92
2021/03/04 01:41:23;;;;;;;;;;;5.10;99.90;;;;;;5020775;28;19913;-91
2021/03/04 01:43:56;;;;;;;;;;;5.10;99.90;;;;;;5021639;28;19910;-92
2021/03/04 01:46:22;;;;;;;;;;;5.10;99.90;;;;;;5022211;28;19909;-91
2021/03/04 01:48:51;;;;;;;;;;;5.10;99.90;;;;;;5038313;28;20381;-90
2021/03/04 01:51:20;;;;;;;;;;;5.20;99.90;;;;;;5020571;28;19909;-91
2021/03/04 01:53:47;;;;;;;;;;;5.20;99.90;;;;;;5022560;28;19909;-91
2021/03/04 01:56:13;;;;;;;;;;;5.20;99.90;;;;;;5027204;28;19909;-92
2021/03/04 01:58:42;;;;;;;;;;;5.20;99.90;;;;;;5027399;28;20378;-91
2021/03/04 02:01:09;;;;;;;;;;;5.20;99.90;;;;;;5020006;28;19959;-92
2021/03/04 02:03:39;;;;;;;;;;;5.20;99.90;;;;;;5028448;28;19909;-91
2021/03/04 02:06:13;;;;;;;;;;;5.20;99.90;;;;;;5021208;28;20321;-92
2021/03/04 02:09:02;;;;;;;;;;;5.20;99.90;;;;;;5023728;28;20274;-92
2021/03/04 02:11:45;;;;;;;;;;;5.20;99.90;;;;;;5034460;28;19909;-91
2021/03/04 02:14:20;;;;;;;;;;;5.20;99.90;;;;;;5027332;28;19916;-91
2021/03/04 02:16:48;;;;;;;;;;;5.20;99.90;;;;;;5045297;28;19969;-92
2021/03/04 02:19:33;;;;;;;;;;;5.30;99.90;;;;;;5047307;28;19909;-92
2021/03/04 02:22:02;;;;;;;;;;;5.20;99.90;;;;;;5023055;28;20406;-93
2021/03/04 02:24:47;;;;;;;;;;;5.20;99.90;;;;;;5026647;28;19933;-92
2021/03/04 02:27:21;;;;;;;;;;;5.20;99.90;;;;;;5020956;28;19913;-92
2021/03/04 02:30:10;;;;;;;;;;;5.20;99.90;;;;;;5020794;28;19933;-92
2021/03/04 02:32:42;;;;;;;;;;;5.20;99.90;;;;;;5018999;28;19909;-92
2021/03/04 02:35:10;;;;;;;;;;;5.10;99.90;;;;;;5014100;28;19909;-92
2021/03/04 02:37:51;;;;;;;;;;;5.10;99.90;;;;;;5021301;28;19909;-93
2021/03/04 02:40:24;;;;;;;;;;;5.10;99.90;;;;;;5037860;28;19909;-92
2021/03/04 02:42:57;;;;;;;;;;;5.10;99.90;;;;;;5019479;28;19960;-92
2021/03/04 02:45:25;;;;;;;;;;;5.10;99.90;;;;;;5019645;28;19913;-91
2021/03/04 02:47:55;;;;;;;;;;;5.10;99.90;;;;;;5037854;28;20016;-91
2021/03/04 02:50:36;;;;;;;;;;;5.10;99.90;;;;;;4996783;28;20304;-91
2021/03/04 02:53:40;;;;;;;;;;;5.10;99.90;;;;;;5001864;28;20410;-92
2021/03/04 02:56:15;;;;;;;;;;;5.00;99.90;;;;;;4995115;28;20344;-92
2021/03/04 02:58:45;;;;;;;;;;;5.00;99.90;;;;;;4978773;28;19921;-92
2021/03/04 03:01:14;;;;;;;;;;;4.90;99.90;;;;;;4979172;28;19929;-92
2021/03/04 03:03:49;;;;;;;;;;;5.00;99.90;;;;;;4981707;28;19910;-92
2021/03/04 03:06:18;;;;;;;;;;;5.00;99.90;;;;;;4982953;28;19910;-93
2021/03/04 03:08:52;;;;;;;;;;;4.90;99.90;;;;;;4980030;28;19933;-92
2021/03/04 03:11:37;;;;;;;;;;;4.90;99.90;;;;;;4975965;28;19965;-93
2021/03/04 03:14:11;;;;;;;;;;;4.90;99.90;;;;;;4976430;28;19921;-92
2021/03/04 03:16:45;;;;;;;;;;;4.90;99.90;;;;;;4957136;28;19914;-92
2021/03/04 03:19:14;;;;;;;;;;;4.90;99.90;;;;;;4960227;28;19927;-91
2021/03/04 03:21:53;;;;;;;;;;;4.90;99.90;;;;;;4984295;28;19910;-91
2021/03/04 03:24:22;;;;;;;;;;;4.80;99.90;;;;;;5013617;28;19945;-92
2021/03/04 03:27:02;;;;;;;;;;;4.80;99.90;;;;;;5015643;28;19932;-92
2021/03/04 03:29:38;;;;;;;;;;;4.80;99.90;;;;;;5014387;28;19913;-93
2021/03/04 03:32:15;;;;;;;;;;;4.80;99.90;;;;;;5014064;28;19913;-92
2021/03/04 03:34:50;;;;;;;;;;;4.80;99.90;;;;;;4999640;28;19965;-92
2021/03/04 03:37:22;;;;;;;;;;;4.80;99.90;;;;;;5014010;28;20010;-92
2021/03/04 03:39:55;;;;;;;;;;;4.70;99.90;;;;;;4999999;28;19964;-91
2021/03/04 03:42:27;;;;;;;;;;;4.70;99.90;;;;;;5014264;28;19921;-91
2021/03/04 03:44:57;;;;;;;;;;;4.70;99.90;;;;;;5018047;28;19999;-91
2021/03/04 03:47:47;;;;;;;;;;;4.70;99.90;;;;;;5035552;28;20019;-91
2021/03/04 03:50:16;;;;;;;;;;;4.60;99.90;;;;;;5037604;28;19980;-91
2021/03/04 03:52:43;;;;;;;;;;;4.60;99.90;;;;;;5017511;28;19913;-90
2021/03/04 03:55:10;;;;;;;;;;;4.60;99.90;;;;;;5020032;28;19956;-92
2021/03/04 03:57:38;;;;;;;;;;;4.60;99.90;;;;;;5013674;28;19909;-92
2021/03/04 04:00:17;;;;;;;;;;;4.60;99.90;;;;;;5016037;28;19971;-91
2021/03/04 04:02:46;;;;;;;;;;;4.60;99.90;;;;;;5018180;28;20289;-91
2021/03/04 04:05:21;;;;;;;;;;;4.60;99.90;;;;;;5018509;28;19932;-90
2021/03/04 04:07:50;;;;;;;;;;;4.60;99.90;;;;;;5016662;28;19925;-90
2021/03/04 04:10:24;;;;;;;;;;;4.60;99.90;;;;;;5019410;28;19960;-92
2021/03/04 04:12:58;;;;;;;;;;;4.60;99.90;;;;;;5015642;28;20373;-91
2021/03/04 04:15:33;;;;;;;;;;;4.60;99.90;;;;;;5035775;28;19949;-90
2021/03/04 04:18:05;;;;;;;;;;;4.60;99.90;;;;;;5016689;28;19955;-90
2021/03/04 04:20:46;;;;;;;;;;;4.60;99.90;;;;;;5037099;28;19909;-92
2021/03/04 04:23:17;;;;;;;;;;;4.60;99.90;;;;;;5018618;28;20278;-91
2021/03/04 04:25:53;;;;;;;;;;;4.60;99.90;;;;;;5036155;28;19913;-91
2021/03/04 04:28:23;;;;;;;;;;;4.60;99.90;;;;;;5013609;28;19917;-92
2021/03/04 04:30:49;;;;;;;;;;;4.60;99.90;;;;;;5018816;28;20305;-91
2021/03/04 04:33:15;;;;;;;;;;;4.60;99.90;;;;;;5012906;28;19909;-90
2021/03/04 04:35:44;;;;;;;;;;;4.60;99.90;;;;;;5019102;28;20103;-92
2021/03/04 04:38:15;;;;;;;;;;;4.60;99.90;;;;;;5016692;28;19966;-92
2021/03/04 04:40:54;;;;;;;;;;;4.70;99.90;;;;;;5018222;28;19909;-91
2021/03/04 04:43:20;;;;;;;;;;;4.70;99.90;;;;;;5018669;28;20274;-91
2021/03/04 04:45:49;;;;;;;;;;;4.70;99.90;;;;;;5026812;28;20278;-92
2021/03/04 04:48:27;;;;;;;;;;;4.70;99.90;;;;;;5022148;28;20012;-93
2021/03/04 04:51:03;;;;;;;;;;;4.70;99.90;;;;;;5022687;28;19913;-92
2021/03/04 04:53:28;;;;;;;;;;;4.70;99.90;;;;;;5024973;28;19956;-92
2021/03/04 04:56:01;;;;;;;;;;;4.70;99.90;;;;;;5019110;28;19910;-92
2021/03/04 04:58:32;;;;;;;;;;;4.70;99.90;;;;;;5031157;28;19909;-91
2021/03/04 05:01:05;;;;;;;;;;;4.70;99.90;;;;;;5021921;28;19928;-92
2021/03/04 05:03:33;;;;;;;;;;;4.70;99.90;;;;;;5022098;28;19913;-91
2021/03/04 05:06:11;;;;;;;;;;;4.60;99.90;;;;;;5021479;28;19928;-92
2021/03/04 05:08:39;;;;;;;;;;;4.60;99.90;;;;;;5020867;28;19960;-92
2021/03/04 05:11:09;;;;;;;;;;;4.60;99.90;;;;;;5019026;28;19909;-92
2021/03/04 05:13:44;;;;;;;;;;;4.60;99.90;;;;;;5022804;28;20366;-93
2021/03/04 05:16:13;;;;;;;;;;;4.60;99.90;;;;;;5035531;28;20370;-91
2021/03/04 05:18:42;;;;;;;;;;;4.60;99.90;;;;;;5021747;28;19913;-91
2021/03/04 05:21:11;;;;;;;;;;;4.50;99.90;;;;;;5018929;28;19919;-91
2021/03/04 05:23:41;;;;;;;;;;;4.50;99.90;;;;;;5017653;28;19968;-91
2021/03/04 05:26:09;;;;;;;;;;;4.50;99.90;;;;;;5017041;28;20393;-92
2021/03/04 05:28:38;;;;;;;;;;;4.50;99.90;;;;;;5021997;28;20386;-91
2021/03/04 05:31:07;;;;;;;;;;;4.50;99.90;;;;;;5021898;28;19913;-91
2021/03/04 05:33:34;;;;;;;;;;;4.50;99.90;;;;;;5021593;28;20012;-92
2021/03/04 05:36:11;;;;;;;;;;;4.50;99.90;;;;;;5021839;28;19909;-92
2021/03/04 05:38:37;;;;;;;;;;;4.50;99.90;;;;;;5019881;28;19916;-91
2021/03/04 05:41:07;;;;;;;;;;;4.50;99.90;;;;;;5039223;28;20386;-91
2021/03/04 05:43:37;;;;;;;;;;;4.50;99.90;;;;;;5021749;28;19913;-92
2021/03/04 05:46:07;;;;;;;;;;;4.40;99.90;;;;;;5022594;28;19917;-92
2021/03/04 05:48:37;;;;;;;;;;;4.40;99.90;;;;;;5018123;28;19924;-93
2021/03/04 05:51:14;;;;;;;;;;;4.40;99.90;;;;;;5020804;28;19960;-93
2021/03/04 05:53:57;;;;;;;;;;;4.40;99.90;;;;;;5021109;28;19959;-92
2021/03/04 05:56:26;;;;;;;;;;;4.40;99.90;;;;;;5020500;28;19913;-92
2021/03/04 05:58:52;;;;;;;;;;;4.40;99.90;;;;;;5019454;28;20350;-92
2021/03/04 06:01:22;;;;;;;;;;;4.40;99.90;;;;;;5019522;28;19921;-92
2021/03/04 06:03:51;;;;;;;;;;;4.40;99.90;;;;;;5015073;28;19909;-92
2021/03/04 06:06:17;;;;;;;;;;;4.40;99.90;;;;;;5020144;28;19909;-91
2021/03/04 06:08:45;;;;;;;;;;;4.40;99.90;;;;;;5012520;28;20018;-92
2021/03/04 06:11:16;;;;;;;;;;;4.40;99.90;;;;;;5024395;28;19909;-91
2021/03/04 06:13:42;;;;;;;;;;;4.50;99.90;;;;;;5038811;28;19935;-91
2021/03/04 06:16:10;;;;;;;;;;;4.50;99.90;;;;;;5037336;28;20015;-90
2021/03/04 06:18:40;;;;;;;;;;;4.40;99.90;;;;;;5039835;28;19972;-93
2021/03/04 06:21:28;;;;;;;;;;;4.40;99.90;;;;;;5039534;28;19908;-91
2021/03/04 06:23:55;;;;;;;;;;;4.40;99.90;;;;;;5043524;28;19909;-90
2021/03/04 06:26:38;;;;;;;;;;;4.40;99.90;;;;;;5042437;28;19916;-91
2021/03/04 06:29:19;;;;;;;;;;;4.40;99.90;;;;;;5023217;28;19975;-91
2021/03/04 06:31:48;;;;;;;;;;;4.40;99.90;;;;;;5017444;28;19909;-90
2021/03/04 06:34:23;;;;;;;;;;;4.40;99.90;;;;;;5038089;28;19919;-91
2021/03/04 06:37:02;;;;;;;;;;;4.40;99.90;;;;;;5026824;28;19917;-91
2021/03/04 06:39:42;;;;;;;;;;;4.40;99.90;;;;;;5018283;28;20367;-91
2021/03/04 06:42:17;;;;;;;;;;;4.40;99.90;;;;;;5017867;28;19909;-91
2021/03/04 06:44:47;;;;;;;;;;;4.40;99.90;;;;;;5014905;28;19964;-91
2021/03/04 06:47:44;;;;;;;;;;;4.40;99.90;;;;;;5018636;28;19990;-91
2021/03/04 06:50:20;;;;;;;;;;;4.40;99.90;;;;;;5018245;28;19920;-91
2021/03/04 06:52:57;;;;;;;;;;;4.40;99.90;;;;;;5018491;28;19915;-91
2021/03/04 06:55:33;;;;;;;;;;;4.50;99.90;;;;;;5018467;28;20028;-92
2021/03/04 06:58:21;;;;;;;;;;;4.40;99.90;;;;;;5036353;28;19932;-91
2021/03/04 07:00:47;;;;;;;;;;;4.40;99.90;;;;;;5035842;28;19954;-91
2021/03/04 07:03:16;;;;;;;;;;;4.50;99.90;;;;;;5032626;28;20362;-91
2021/03/04 07:05:47;;;;;;;;;;;4.40;99.90;;;;;;5018201;28;19932;-91
2021/03/04 07:08:31;;;;;;;;;;;4.40;99.90;;;;;;5019525;28;19916;-89
2021/03/04 07:10:59;;;;;;;;;;;4.40;99.90;;;;;;5033990;28;20317;-89
2021/03/04 07:13:31;;;;;;;;;;;4.40;99.90;;;;;;5020143;28;19916;-90
2021/03/04 07:16:19;;;;;;;;;;;4.40;99.90;;;;;;5034707;28;19916;-90
2021/03/04 07:18:49;;;;;;;;;;;4.40;99.90;;;;;;5018038;28;19913;-91
2021/03/04 07:21:22;;;;;;;;;;;4.40;99.90;;;;;;5035923;28;19956;-90
2021/03/04 07:23:50;;;;;;;;;;;4.40;99.90;;;;;;5030418;28;19919;-91
2021/03/04 07:26:19;;;;;;;;;;;4.50;99.90;;;;;;5037920;28;19915;-91
2021/03/04 07:28:55;;;;;;;;;;;4.50;99.90;;;;;;5038058;28;19924;-91
2021/03/04 07:31:30;;;;;;;;;;;4.50;99.90;;;;;;5038370;28;19970;-91
2021/03/04 07:33:56;;;;;;;;;;;4.40;99.90;;;;;;5037963;28;19916;-91
2021/03/04 07:36:27;;;;;;;;;;;4.50;99.90;;;;;;5039049;28;19915;-91
2021/03/04 07:39:00;;;;;;;;;;;4.50;99.90;;;;;;5036663;28;19940;-92
2021/03/04 07:41:39;;;;;;;;;;;4.50;99.90;;;;;;5024007;28;19960;-91
2021/03/04 07:44:08;;;;;;;;;;;4.50;99.90;;;;;;5020015;28;19937;-92
2021/03/04 07:46:44;;;;;;;;;;;4.50;99.90;;;;;;5036456;28;19932;-90
2021/03/04 07:49:13;;;;;;;;;;;4.50;99.90;;;;;;5018383;28;19918;-90
2021/03/04 07:51:47;;;;;;;;;;;4.50;99.90;;;;;;5014423;28;19964;-92
2021/03/04 07:54:25;;;;;;;;;;;4.50;99.90;;;;;;5017786;28;19920;-92
2021/03/04 07:57:04;;;;;;;;;;;4.50;99.90;;;;;;5017620;28;20370;-92
2021/03/04 08:00:03;;;;;;;;;;;4.50;99.90;;;;;;5033247;28;19921;-92
2021/03/04 08:02:35;;;;;;;;;;;4.50;99.90;;;;;;5037529;28;19914;-93
2021/03/04 08:05:04;;;;;;;;;;;4.50;99.90;;;;;;5021959;28;19916;-90
2021/03/04 08:07:39;;;;;;;;;;;4.50;99.90;;;;;;5021830;28;19921;-92
2021/03/04 08:10:22;;;;;;;;;;;4.50;99.90;;;;;;5035783;28;19909;-91
2021/03/04 08:12:57;;;;;;;;;;;4.50;99.90;;;;;;5021343;28;19944;-92
2021/03/04 08:15:40;;;;;;;;;;;4.50;99.90;;;;;;5021197;28;19932;-91
2021/03/04 08:18:17;;;;;;;;;;;4.50;99.90;;;;;;5038806;28;19912;-92
2021/03/04 08:20:46;;;;;;;;;;;4.60;99.90;;;;;;5021192;28;19921;-91
2021/03/04 08:23:21;;;;;;;;;;;4.60;99.90;;;;;;5023960;28;19916;-90
2021/03/04 08:25:50;;;;;;;;;;;4.70;99.90;;;;;;5024494;28;19909;-92
2021/03/04 08:28:36;;;;;;;;;;;4.70;99.90;;;;;;5041266;28;19921;-92
2021/03/04 08:31:23;;;;;;;;;;;4.70;99.90;;;;;;5025285;28;19913;-91
2021/03/04 08:34:00;;;;;;;;;;;4.70;99.90;;;;;;5025224;28;19916;-92
2021/03/04 08:36:46;;;;;;;;;;;4.70;99.90;;;;;;5021901;28;19909;-92
2021/03/04 08:39:22;;;;;;;;;;;4.70;99.90;;;;;;5002825;28;19913;-92
2021/03/04 08:41:48;;;;;;;;;;;4.70;99.90;;;;;;5004765;28;19928;-92
2021/03/04 08:44:19;;;;;;;;;;;4.70;99.90;;;;;;5000375;28;19913;-90
2021/03/04 08:46:54;;;;;;;;;;;4.70;99.90;;;;;;5021384;28;19932;-92
2021/03/04 08:49:24;;;;;;;;;;;4.70;99.90;;;;;;5006278;28;19925;-89
2021/03/04 08:51:56;;;;;;;;;;;4.70;99.90;;;;;;5007820;28;19964;-91
2021/03/04 08:54:29;;;;;;;;;;;4.70;99.90;;;;;;5007216;28;19957;-89
2021/03/04 08:57:02;;;;;;;;;;;4.70;99.90;;;;;;5011250;28;19965;-92
2021/03/04 08:59:32;;;;;;;;;;;4.70;99.90;;;;;;5009405;28;20354;-91
2021/03/04 09:02:03;;;;;;;;;;;4.70;99.90;;;;;;5022909;28;19921;-92
2021/03/04 09:04:38;;;;;;;;;;;4.70;99.90;;;;;;5026484;28;19913;-91
2021/03/04 09:07:12;;;;;;;;;;;4.70;99.90;;;;;;5014660;28;19976;-91
2021/03/04 09:10:01;;;;;;;;;;;4.80;99.90;;;;;;5020466;28;19913;-91
2021/03/04 09:12:29;;;;;;;;;;;4.80;99.90;;;;;;5022190;28;19920;-93
2021/03/04 09:15:00;;;;;;;;;;;4.90;99.90;;;;;;5007504;28;19918;-89
2021/03/04 09:17:45;;;;;;;;;;;4.90;99.90;;;;;;5016535;28;19983;-90
2021/03/04 09:20:20;;;;;;;;;;;4.90;99.90;;;;;;5008668;28;19913;-90
2021/03/04 09:22:49;;;;;;;;;;;4.90;99.90;;;;;;5010990;28;19930;-91
2021/03/04 09:25:20;;;;;;;;;;;4.90;99.90;;;;;;5016466;28;19913;-92
2021/03/04 09:27:49;;;;;;;;;;;5.00;99.90;;;;;;5007976;28;19957;-91
2021/03/04 09:30:26;;;;;;;;;;;5.00;99.90;;;;;;5004403;28;20015;-92
2021/03/04 09:33:00;;;;;;;;;;;4.90;99.90;;;;;;5005984;28;19916;-91
2021/03/04 09:35:35;;;;;;;;;;;4.90;99.90;;;;;;5006504;28;19910;-91
2021/03/04 09:38:30;;;;;;;;;;;4.90;99.90;;;;;;5023093;28;20284;-93
2021/03/04 09:41:20;;;;;;;;;;;4.90;99.90;;;;;;5002469;28;19910;-92
2021/03/04 09:43:49;;;;;;;;;;;5.00;99.90;;;;;;5005528;28;19917;-90
2021/03/04 09:46:38;;;;;;;;;;;5.00;99.90;;;;;;5007136;28;19909;-91
2021/03/04 09:49:30;;;;;;;;;;;5.00;99.90;;;;;;5005584;28;20023;-91
2021/03/04 09:52:15;;;;;;;;;;;5.00;99.90;;;;;;4983897;28;19934;-91
2021/03/04 09:55:27;;;;;;;;;;;5.10;99.90;;;;;;4983030;28;19910;-91
2021/03/04 09:57:57;;;;;;;;;;;5.10;99.90;;;;;;4965467;28;19914;-91
2021/03/04 10:00:24;;;;;;;;;;;5.20;99.90;;;;;;4983482;28;19922;-90
2021/03/04 10:03:00;;;;;;;;;;;5.30;99.90;;;;;;4983501;28;19933;-92
2021/03/04 10:05:31;;;;;;;;;;;5.50;99.90;;;;;;5001531;28;19910;-90
2021/03/04 10:08:01;;;;;;;;;;;5.40;99.90;;;;;;5001256;28;19918;-89
2021/03/04 10:10:28;;;;;;;;;;;5.40;99.90;;;;;;5000726;28;19913;-89
2021/03/04 10:13:00;;;;;;;;;;;5.40;99.90;;;;;;4999529;28;19910;-91
2021/03/04 10:15:31;;;;;;;;;;;5.40;99.90;;;;;;4999833;28;19949;-91
2021/03/04 10:18:03;;;;;;;;;;;5.50;99.90;;;;;;4998088;28;19910;-89
2021/03/04 10:20:31;;;;;;;;;;;5.50;99.90;;;;;;4997402;28;19910;-90
2021/03/04 10:23:05;;;;;;;;;;;5.50;99.90;;;;;;5010321;28;20019;-90
2021/03/04 10:25:40;;;;;;;;;;;5.50;99.90;;;;;;5007470;28;19932;-89
2021/03/04 10:28:12;;;;;;;;;;;5.40;99.90;;;;;;5025480;28;19913;-92
2021/03/04 10:30:49;;;;;;;;;;;5.40;99.90;;;;;;5042130;28;20416;-92
2021/03/04 10:33:25;;;;;;;;;;;5.40;99.90;;;;;;5042356;28;19913;-90
2021/03/04 10:35:51;;;;;;;;;;;5.30;99.90;;;;;;5024149;28;19933;-91
2021/03/04 10:38:20;;;;;;;;;;;5.30;99.90;;;;;;5025498;28;19913;-90
2021/03/04 10:40:49;;;;;;;;;;;5.30;99.90;;;;;;5024149;28;19909;-90
2021/03/04 10:43:18;;;;;;;;;;;5.30;99.90;;;;;;5020373;28;19913;-91
2021/03/04 10:46:12;;;;;;;;;;;5.30;99.90;;;;;;5040313;28;19909;-92
2021/03/04 10:48:38;;;;;;;;;;;5.30;99.90;;;;;;5018713;28;19939;-91
2021/03/04 10:51:09;;;;;;;;;;;5.30;99.90;;;;;;5019161;28;19917;-90
2021/03/04 10:56:32;;;;;;;;;;;5.40;99.90;;;;;;5005923;28;19910;-91
2021/03/04 10:59:09;;;;;;;;;;;5.50;99.90;;;;;;5014675;28;20378;-89
2021/03/04 11:01:40;;;;;;;;;;;5.60;99.90;;;;;;5013773;28;19921;-91
2021/03/04 11:04:12;;;;;;;;;;;5.60;99.90;;;;;;5017669;28;19960;-91
2021/03/04 11:06:41;;;;;;;;;;;5.70;99.90;;;;;;5039801;28;19971;-91
2021/03/04 11:09:23;;;;;;;;;;;5.70;99.90;;;;;;5036026;28;19924;-91
2021/03/04 11:11:55;;;;;;;;;;;5.60;99.90;;;;;;5054099;28;19909;-91
2021/03/04 11:14:30;;;;;;;;;;;5.60;99.90;;;;;;5038171;28;19913;-92
2021/03/04 11:17:04;;;;;;;;;;;5.60;99.90;;;;;;5037144;28;19913;-91
2021/03/04 11:19:41;;;;;;;;;;;5.50;99.90;;;;;;5057515;28;20007;-90
2021/03/04 11:22:10;;;;;;;;;;;5.50;99.90;;;;;;5055313;28;19962;-91
2021/03/04 11:24:48;;;;;;;;;;;5.60;99.90;;;;;;5000439;28;19916;-89
2021/03/04 11:27:17;;;;;;;;;;;5.60;99.90;;;;;;5002152;28;19914;-88
2021/03/04 11:29:48;;;;;;;;;;;5.60;99.90;;;;;;5017260;28;19914;-91
2021/03/04 11:32:17;;;;;;;;;;;5.50;99.90;;;;;;5006223;28;19913;-91
2021/03/04 11:34:53;;;;;;;;;;;5.50;99.90;;;;;;5018350;28;19913;-90
2021/03/04 11:37:26;;;;;;;;;;;5.50;99.90;;;;;;5019584;28;19913;-90
2021/03/04 11:40:04;;;;;;;;;;;5.50;99.90;;;;;;5022874;28;19916;-89
2021/03/04 11:42:41;;;;;;;;;;;5.50;99.90;;;;;;5023306;28;20019;-90
2021/03/04 11:45:17;;;;;;;;;;;5.40;99.90;;;;;;4994799;28;19948;-89
2021/03/04 11:47:47;;;;;;;;;;;5.30;99.90;;;;;;4978710;28;19929;-90
2021/03/04 11:50:16;;;;;;;;;;;5.30;99.90;;;;;;4982047;28;19918;-89
2021/03/04 11:52:48;;;;;;;;;;;5.30;99.90;;;;;;4976555;28;19958;-92
2021/03/04 11:55:22;;;;;;;;;;;5.40;99.90;;;;;;4976568;28;19920;-91
2021/03/04 11:57:52;;;;;;;;;;;5.50;99.90;;;;;;4982366;28;19998;-89
2021/03/04 12:00:24;;;;;;;;;;;5.60;99.90;;;;;;4982693;28;20012;-89
2021/03/04 12:02:53;;;;;;;;;;;5.60;99.90;;;;;;4988563;28;19914;-90
2021/03/04 12:05:23;;;;;;;;;;;5.60;99.90;;;;;;4983785;28;19910;-89
2021/03/04 12:08:10;;;;;;;;;;;5.50;99.90;;;;;;5002134;28;20306;-90
2021/03/04 12:10:48;;;;;;;;;;;5.60;99.90;;;;;;4986447;28;19918;-91
2021/03/04 12:13:23;;;;;;;;;;;5.80;99.90;;;;;;4990000;28;19921;-90
2021/03/04 12:16:08;;;;;;;;;;;6.00;99.90;;;;;;5003838;28;19920;-90
2021/03/04 12:19:01;;;;;;;;;;;6.30;99.90;;;;;;5017503;28;19924;-90
2021/03/04 12:21:33;;;;;;;;;;;6.50;99.90;;;;;;5023169;28;19914;-90
2021/03/04 12:24:09;;;;;;;;;;;6.70;99.90;;;;;;5034540;28;19909;-90
2021/03/04 12:26:40;;;;;;;;;;;6.80;99.90;;;;;;5022811;28;19932;-91
2021/03/04 12:29:50;;;;;;;;;;;6.90;99.90;;;;;;5057572;28;19920;-92
2021/03/04 12:32:46;;;;;;;;;;;6.90;99.90;;;;;;5060483;28;19913;-91
2021/03/04 12:35:18;;;;;;;;;;;6.90;99.90;;;;;;5041487;28;19916;-92
2021/03/04 12:37:44;;;;;;;;;;;6.90;99.90;;;;;;5043289;28;19960;-91
2021/03/04 12:40:10;;;;;;;;;;;6.90;99.90;;;;;;5044060;28;19920;-93
2021/03/04 12:42:40;;;;;;;;;;;6.90;99.90;;;;;;5041464;28;19912;-93
2021/03/04 12:45:08;;;;;;;;;;;7.00;99.90;;;;;;5040421;28;19913;-93
2021/03/04 12:47:44;;;;;;;;;;;7.00;99.90;;;;;;5041737;28;20284;-91
2021/03/04 12:50:16;;;;;;;;;;;7.00;99.90;;;;;;5041225;28;19912;-90
2021/03/04 12:52:47;;;;;;;;;;;7.00;99.90;;;;;;5041653;28;19909;-90
2021/03/04 12:55:23;;;;;;;;;;;7.00;99.90;;;;;;5041719;28;20004;-89
2021/03/04 12:57:49;;;;;;;;;;;6.90;99.90;;;;;;5044611;28;19976;-90
2021/03/04 13:00:19;;;;;;;;;;;6.90;99.90;;;;;;5034905;28;19961;-93
2021/03/04 13:02:53;;;;;;;;;;;7.00;99.90;;;;;;5038613;28;19909;-92
2021/03/04 13:05:30;;;;;;;;;;;7.00;99.90;;;;;;5038915;28;19909;-93
2021/03/04 13:08:01;;;;;;;;;;;7.00;99.90;;;;;;5030644;28;19913;-92
2021/03/04 13:10:27;;;;;;;;;;;7.00;99.90;;;;;;5042255;28;20277;-92
2021/03/04 13:13:19;;;;;;;;;;;7.00;99.90;;;;;;5038625;28;19913;-90
2021/03/04 13:26:23;;;;;;;;;;;6.90;99.90;;;;;;4917167;29;19919;-92
2021/03/04 13:28:59;;;;;;;;;;;7.00;99.90;;;;;;4909316;29;19920;-92
2021/03/04 13:32:01;;;;;;;;;;;7.00;99.90;;;;;;4865727;29;19913;-91
2021/03/04 13:35:27;;;;;;;;;;;;;;;;;;;;;
2021/03/04 13:37:37;;;;;;;;;;;7.10;99.90;;;;;;4999391;28;19909;-91
2021/03/04 13:40:24;;;;;;;;;;;7.10;99.90;;;;;;4994919;28;20367;-91
2021/03/04 13:50:53;;;;;;;;;;;;;;;;;;;;;
2021/03/04 13:53:52;;;;;;;;;;;6.80;99.90;;;;;;4919212;29;19911;-91
2021/03/04 13:56:22;;;;;;;;;;;6.80;99.90;;;;;;4896638;29;19916;-91
2021/03/04 13:59:33;;;;;;;;;;;;;;;;;;;;;
2021/03/04 14:02:46;;;;;;;;;;;;;;;;;;;;;
2021/03/04 14:05:22;;;;;;;;;;;6.60;99.90;;;;;;4943224;29;19985;-90
2021/03/04 14:08:15;;;;;;;;;;;6.80;99.90;;;;;;4933885;29;19958;-91
2021/03/04 14:10:45;;;;;;;;;;;6.90;99.90;;;;;;4946879;29;20311;-90
2021/03/04 14:13:22;;;;;;;;;;;6.80;99.90;;;;;;4985616;28;19915;-89
2021/03/04 14:15:54;;;;;;;;;;;6.80;99.90;;;;;;5000646;28;19909;-89
2021/03/04 14:18:21;;;;;;;;;;;6.80;99.90;;;;;;4996795;28;19968;-89
2021/03/04 14:20:52;;;;;;;;;;;6.70;99.90;;;;;;5032326;28;19957;-90
2021/03/04 14:23:25;;;;;;;;;;;6.70;99.90;;;;;;4999744;28;20384;-89
2021/03/04 14:25:54;;;;;;;;;;;6.70;99.90;;;;;;5016291;28;19920;-90
2021/03/04 14:28:37;;;;;;;;;;;6.60;99.90;;;;;;5022376;28;19952;-90
2021/03/04 14:31:06;;;;;;;;;;;6.60;99.90;;;;;;5020458;28;19964;-90
2021/03/04 14:33:34;;;;;;;;;;;6.60;99.90;;;;;;5022116;28;19996;-91
2021/03/04 14:36:06;;;;;;;;;;;6.80;99.90;;;;;;5021157;28;19936;-92
2021/03/04 14:38:39;;;;;;;;;;;6.80;99.90;;;;;;5029614;28;19920;-91
2021/03/04 14:41:32;;;;;;;;;;;6.90;99.90;;;;;;5045642;28;19960;-90
2021/03/04 14:44:03;;;;;;;;;;;6.90;99.90;;;;;;5019175;28;20000;-91
2021/03/04 14:46:35;;;;;;;;;;;7.00;99.90;;;;;;5020230;28;20297;-91
2021/03/04 14:49:13;;;;;;;;;;;7.10;99.90;;;;;;5034850;28;19929;-90
2021/03/04 14:51:50;;;;;;;;;;;7.10;99.90;;;;;;5000830;28;19959;-90
2021/03/04 14:54:16;;;;;;;;;;;7.10;99.90;;;;;;5037023;28;19936;-90
2021/03/04 14:56:46;;;;;;;;;;;7.10;99.90;;;;;;5031285;28;19919;-89
2021/03/04 14:59:20;;;;;;;;;;;7.00;99.90;;;;;;5022683;28;20008;-89
2021/03/04 15:01:49;;;;;;;;;;;7.00;99.90;;;;;;5020407;28;19932;-89
2021/03/04 15:04:15;;;;;;;;;;;7.00;99.90;;;;;;5020050;28;19913;-92
2021/03/04 15:06:42;;;;;;;;;;;7.00;99.90;;;;;;5032453;28;19982;-89
2021/03/04 15:09:10;;;;;;;;;;;6.90;99.90;;;;;;5016010;28;20437;-90
2021/03/04 15:11:42;;;;;;;;;;;6.90;99.90;;;;;;5015970;28;20021;-88
2021/03/04 15:14:14;;;;;;;;;;;6.90;99.90;;;;;;5019209;28;19916;-90
2021/03/04 15:16:57;;;;;;;;;;;6.80;99.90;;;;;;5036081;28;20389;-88
2021/03/04 15:19:23;;;;;;;;;;;6.70;99.90;;;;;;5015640;28;19914;-89
2021/03/04 15:21:58;;;;;;;;;;;6.70;99.90;;;;;;5018236;28;19916;-88
2021/03/04 15:24:27;;;;;;;;;;;6.70;99.90;;;;;;5019724;28;19910;-89
2021/03/04 15:27:22;;;;;;;;;;;6.70;99.90;;;;;;5015416;28;19913;-90
2021/03/04 15:29:57;;;;;;;;;;;6.70;99.90;;;;;;5019049;28;19923;-90
2021/03/04 15:32:34;;;;;;;;;;;6.70;99.90;;;;;;5018986;28;20003;-90
2021/03/04 15:35:02;;;;;;;;;;;6.70;99.90;;;;;;5018491;28;19936;-90